Latest Coastal Weather Observations for Frederick Reef

IDQ60701

Issued at 3:51 pm EST Saturday 20 December 2014 (issued every 10 minutes, with the page automatically refreshed every 10 minutes)

About coastal observations | Map of coastal stations | Coastal observations for QLD | Marine services | Other Formats
Station Details ID: 200701 Name: FREDERICK REEF Lat: -20.94 Lon: 154.40 Height: 4.9 m
Data from the previous 72 hours. | See also: Recent months for locations in Queensland
Date/Time
EST
Temp

°C
Wind Pressure Rain
since 9am
mm
Weather Cloud Vis
km
Sea
Height
m
Swell
Dir
 
Speed
knots
Gust
knots
hPa Trend Height
m
Period
s
Dir
20/03:30pm 26.5 SE 11 13 1010.0 - - - - - - - - -
20/03:00pm 26.4 SSE 15 17 1009.7 - - - - - - - - -
20/02:30pm 26.7 SE 10 13 1010.2 - - - - - - - - -
20/02:00pm 26.8 SE 9 11 1010.3 - - - - - - - - -
20/01:30pm 26.6 SE 10 11 1011.2 - - - - - - - - -
20/01:00pm 26.6 SE 1 3 1011.1 - - - - - - - - -
20/12:30pm 26.6 CALM 0 3 1011.6 - - - - - - - - -
20/12:00pm 26.5 ESE 1 2 1011.4 - - - - - - - - -
20/11:30am 26.5 CALM 0 3 1012.2 - - - - - - - - -
20/11:00am 26.6 CALM 0 3 1012.4 - - - - - - - - -
20/10:30am 26.5 CALM 0 2 1012.5 - - - - - - - - -
20/10:00am 26.6 ESE 1 3 1012.3 - - - - - - - - -
20/09:30am 26.7 ESE 1 2 1012.5 - - - - - - - - -
20/09:00am 26.7 E 1 3 1012.2 - - - - - - - - -
20/08:30am 26.6 CALM 0 2 1012.2 - - - - - - - - -
20/08:00am 26.7 CALM 0 3 1011.8 - - - - - - - - -
20/07:30am 27.0 E 1 2 1012.1 - - - - - - - - -
20/07:00am 26.9 CALM 0 3 1012.0 - - - - - - - - -
20/06:30am 26.6 ESE 9 11 1011.8 - - - - - - - - -
20/06:00am 26.7 ESE 7 - 1011.5 - - - - - - - - -
20/05:30am 26.4 CALM 0 2 1011.4 - - - - - - - - -
20/05:00am 26.2 ESE 1 3 1010.6 - - - - - - - - -
20/04:30am 26.1 E 6 8 1010.7 - - - - - - - - -
20/04:00am 26.2 CALM 0 2 1010.6 - - - - - - - - -
20/03:30am 26.2 CALM 0 1 1010.5 - - - - - - - - -
20/03:00am 26.3 CALM 0 2 1010.3 - - - - - - - - -
20/02:30am 26.3 CALM 0 3 1010.5 - - - - - - - - -
20/02:00am 26.3 CALM 0 1 1010.6 - - - - - - - - -
20/01:30am 26.3 CALM 0 1 1010.8 - - - - - - - - -
20/01:00am 26.3 CALM 0 2 1011.1 - - - - - - - - -
20/12:30am 26.3 CALM 0 3 1011.5 - - - - - - - - -
20/12:00am 26.4 CALM 0 2 1012.1 - - - - - - - - -
 
Date/Time
EST
Temp

°C
Wind Pressure Rain
since 9am
mm
Weather Cloud Vis
km
Sea
Height
m
Swell
Dir
 
Speed
knots
Gust
knots
hPa Trend Height
m
Period
s
Dir
19/11:30pm 26.4 CALM 0 2 1012.2 - - - - - - - - -
19/11:00pm 26.4 CALM 0 4 1012.5 - - - - - - - - -
19/10:30pm 26.5 CALM 0 1 1012.9 - - - - - - - - -
19/10:00pm 26.5 CALM 0 1 1013.1 - - - - - - - - -
19/09:30pm 26.5 CALM 0 3 1012.7 - - - - - - - - -
19/09:00pm 26.5 CALM 0 6 1012.5 - - - - - - - - -
19/08:30pm 26.5 CALM 0 2 1012.3 - - - - - - - - -
19/08:00pm 26.5 CALM 0 2 1012.0 - - - - - - - - -
19/07:30pm 26.5 CALM 0 4 1012.3 - - - - - - - - -
19/07:00pm 26.6 CALM 0 3 1012.1 - - - - - - - - -
19/06:30pm 26.6 CALM 0 3 1011.8 - - - - - - - - -
19/06:00pm 26.8 CALM 0 4 1011.4 - - - - - - - - -
19/05:30pm 27.0 CALM 0 3 1011.2 - - - - - - - - -
19/05:00pm 27.1 WSW 6 7 1010.8 - - - - - - - - -
19/04:30pm 27.6 WSW 5 6 1010.9 - - - - - - - - -
19/04:00pm 27.2 WSW 6 7 1010.4 - - - - - - - - -
19/03:30pm 27.6 W 1 6 1010.6 - - - - - - - - -
19/03:00pm 27.0 WSW 5 6 1010.4 - - - - - - - - -
19/02:30pm 28.0 W 1 3 1010.8 - - - - - - - - -
19/02:00pm 28.3 W 2 4 1010.6 - - - - - - - - -
19/01:30pm 27.5 W 1 5 1010.9 - - - - - - - - -
19/01:00pm 26.9 W 6 8 1010.9 - - - - - - - - -
19/12:30pm 26.7 W 6 8 1011.0 - - - - - - - - -
19/12:00pm 26.7 W 7 8 1011.0 - - - - - - - - -
19/11:30am 26.7 W 4 8 1011.8 - - - - - - - - -
19/11:00am 26.9 WSW 3 8 1011.7 - - - - - - - - -
19/10:30am 26.7 WSW 2 8 1012.2 - - - - - - - - -
19/10:00am 26.9 WSW 2 5 1012.4 - - - - - - - - -
19/09:30am 26.9 W 4 8 1012.3 - - - - - - - - -
19/09:00am 26.7 WSW 5 8 1012.4 - - - - - - - - -
19/08:30am 26.6 W 7 10 1012.5 - - - - - - - - -
19/08:00am 26.8 WSW 5 8 1012.6 - - - - - - - - -
19/07:30am 27.2 W 5 8 1012.8 - - - - - - - - -
19/07:00am 26.6 W 5 7 1012.7 - - - - - - - - -
19/06:30am 26.8 W 3 7 1013.5 - - - - - - - - -
19/06:00am 26.9 N 6 12 1012.4 - - - - - - - - -
19/05:30am 26.1 ENE 6 8 1012.5 - - - - - - - - -
19/05:00am 25.8 ENE 8 11 1011.8 - - - - - - - - -
19/04:30am 25.8 NNW 9 11 1011.6 - - - - - - - - -
19/04:00am 25.7 WNW 10 11 1011.6 - - - - - - - - -
19/03:30am 25.7 NW 9 11 1011.4 - - - - - - - - -
19/03:00am 25.8 N 9 12 1011.1 - - - - - - - - -
19/02:30am 25.8 W 8 11 1011.6 - - - - - - - - -
19/02:00am 25.9 WNW 9 12 1011.7 - - - - - - - - -
19/01:30am 25.9 NW 9 13 1011.7 - - - - - - - - -
19/01:00am 26.0 NW 10 11 1012.0 - - - - - - - - -
19/12:30am 25.9 ESE 9 12 1012.4 - - - - - - - - -
19/12:00am 26.0 NE 10 11 1012.7 - - - - - - - - -
 
Date/Time
EST
Temp

°C
Wind Pressure Rain
since 9am
mm
Weather Cloud Vis
km
Sea
Height
m
Swell
Dir
 
Speed
knots
Gust
knots
hPa Trend Height
m
Period
s
Dir
18/11:30pm 26.0 N 7 9 1013.0 - - - - - - - - -
18/11:00pm 26.0 E 9 11 1013.0 - - - - - - - - -
18/10:30pm 26.0 ENE 8 11 1013.0 - - - - - - - - -
18/10:00pm 26.1 E 9 11 1012.8 - - - - - - - - -
18/09:30pm 26.1 N 9 13 1012.7 - - - - - - - - -
18/09:00pm 26.1 SW 6 11 1012.4 - - - - - - - - -
18/08:30pm 26.1 SW 4 10 1012.7 - - - - - - - - -
18/08:00pm 26.1 N 8 11 1012.2 - - - - - - - - -
18/07:30pm 26.2 NNW 8 10 1011.9 - - - - - - - - -
18/07:00pm 26.1 N 9 11 1011.3 - - - - - - - - -
18/06:30pm 26.2 ENE 10 11 1011.1 - - - - - - - - -
18/06:00pm 26.3 ENE 8 9 1010.9 - - - - - - - - -
18/05:30pm 26.4 NE 8 10 1010.8 - - - - - - - - -
18/05:00pm 26.5 NE 8 11 1010.3 - - - - - - - - -
18/04:30pm 26.6 ENE 7 9 1010.7 - - - - - - - - -
18/04:00pm 26.8 NE 7 8 1010.3 - - - - - - - - -
18/03:30pm 26.6 NE 7 9 1010.9 - - - - - - - - -
18/03:00pm 26.5 NE 10 11 1010.9 - - - - - - - - -
18/02:30pm 26.6 WNW 6 9 1011.5 - - - - - - - - -
18/02:00pm 26.6 W 5 9 1011.6 - - - - - - - - -
18/01:30pm 26.8 W 6 8 1012.4 - - - - - - - - -
18/01:00pm 26.9 W 6 8 1012.3 - - - - - - - - -
18/12:00pm 26.7 W 7 8 1012.7 - - - - - - - - -
18/11:30am 26.8 NNE 1 3 1012.9 - - - - - - - - -
18/11:00am 26.5 CALM 0 3 1012.9 - - - - - - - - -
18/10:30am 26.5 CALM 0 3 1013.3 - - - - - - - - -
18/10:00am 26.4 ENE 1 3 1013.0 - - - - - - - - -
18/09:30am 26.7 NE 1 3 1013.6 - - - - - - - - -
18/09:00am 26.5 NE 1 9 1013.3 - - - - - - - - -
18/08:30am 26.9 W 6 8 1013.7 - - - - - - - - -
18/08:00am 27.0 W 6 8 1013.4 - - - - - - - - -
18/07:30am 27.7 W 6 7 1013.5 - - - - - - - - -
18/07:00am 27.2 NE 7 8 1013.2 - - - - - - - - -
18/06:30am 26.6 NE 8 9 1013.2 - - - - - - - - -
18/06:00am 26.5 NE 9 10 1012.6 - - - - - - - - -
18/05:30am 26.0 NE 9 10 1012.2 - - - - - - - - -
18/05:00am 25.7 ENE 8 9 1011.9 - - - - - - - - -
18/04:30am 25.7 N 7 8 1011.5 - - - - - - - - -
18/04:00am 25.7 WNW 8 10 1011.0 - - - - - - - - -
18/03:30am 25.7 NW 8 10 1011.1 - - - - - - - - -
18/03:00am 25.8 NW 8 11 1010.6 - - - - - - - - -
18/02:30am 25.7 NW 8 10 1010.9 - - - - - - - - -
18/02:00am 25.8 WNW 8 9 1010.4 - - - - - - - - -
18/01:30am 25.8 NNW 9 11 1010.4 - - - - - - - - -
18/01:00am 25.9 N 9 11 1010.6 - - - - - - - - -
18/12:30am 26.0 WNW 8 10 1011.0 - - - - - - - - -
18/12:00am 26.0 W 8 9 1010.7 - - - - - - - - -
 
Date/Time
EST
Temp

°C
Wind Pressure Rain
since 9am
mm
Weather Cloud Vis
km
Sea
Height
m
Swell
Dir
 
Speed
knots
Gust
knots
hPa Trend Height
m
Period
s
Dir
17/11:30pm 26.1 WNW 8 10 1011.5 - - - - - - - - -
17/11:00pm 26.1 W 6 8 1011.4 - - - - - - - - -
17/10:30pm 26.1 W 7 9 1011.5 - - - - - - - - -
17/10:00pm 26.0 W 1 5 1011.1 - - - - - - - - -
17/09:30pm 26.0 W 1 5 1011.5 - - - - - - - - -
17/09:00pm 26.0 W 5 7 1011.0 - - - - - - - - -
17/08:30pm 26.0 W 2 5 1010.9 - - - - - - - - -
17/08:00pm 26.0 W 2 5 1010.4 - - - - - - - - -
17/07:30pm 26.0 WSW 2 5 1010.6 - - - - - - - - -
17/07:00pm 26.0 CALM 0 4 1010.0 - - - - - - - - -
17/06:30pm 26.1 CALM 0 3 1009.9 - - - - - - - - -
17/06:00pm 26.4 CALM 0 5 1009.5 - - - - - - - - -
17/05:30pm 26.8 CALM 0 2 1009.4 - - - - - - - - -
17/05:00pm 26.7 CALM 0 2 1009.3 - - - - - - - - -
17/04:30pm 26.5 CALM 0 1 1009.2 - - - - - - - - -
17/04:00pm 26.7 CALM 0 3 1008.7 - - - - - - - - -

Other Formats:

Comma delimited format used in spreadsheet applications
http://www.bom.gov.au/fwo/IDQ60701/IDQ60701.94393.axf

JavaScript Object Notation format (JSON) in row-major order
http://www.bom.gov.au/fwo/IDQ60701/IDQ60701.94393.json